sensor_id;sensor_type;location;lat;lon;timestamp;P1;durP1;ratioP1;P2;durP2;ratioP2
41253;SDS011;26987;59.928;30.306;2022-09-09T00:00:52;22.10;;;7.95;;
41253;SDS011;26987;59.928;30.306;2022-09-09T00:03:30;18.23;;;7.80;;
41253;SDS011;26987;59.928;30.306;2022-09-09T00:06:04;19.40;;;7.43;;
41253;SDS011;26987;59.928;30.306;2022-09-09T00:08:41;20.05;;;6.85;;
41253;SDS011;26987;59.928;30.306;2022-09-09T00:11:20;14.43;;;6.45;;
41253;SDS011;26987;59.928;30.306;2022-09-09T00:13:54;18.95;;;6.82;;
41253;SDS011;26987;59.928;30.306;2022-09-09T00:16:25;22.35;;;5.85;;
41253;SDS011;26987;59.928;30.306;2022-09-09T00:19:01;13.48;;;5.88;;
41253;SDS011;26987;59.928;30.306;2022-09-09T00:21:38;11.45;;;5.80;;
41253;SDS011;26987;59.928;30.306;2022-09-09T00:24:10;12.77;;;6.28;;
41253;SDS011;26987;59.928;30.306;2022-09-09T00:29:14;17.80;;;6.32;;
41253;SDS011;26987;59.928;30.306;2022-09-09T00:31:53;14.82;;;6.57;;
41253;SDS011;26987;59.928;30.306;2022-09-09T00:34:27;18.90;;;7.78;;
41253;SDS011;26987;59.928;30.306;2022-09-09T00:36:56;12.45;;;6.03;;
41253;SDS011;26987;59.928;30.306;2022-09-09T00:39:27;12.30;;;5.97;;
41253;SDS011;26987;59.928;30.306;2022-09-09T00:42:04;15.18;;;5.50;;
41253;SDS011;26987;59.928;30.306;2022-09-09T00:44:44;12.10;;;4.97;;
41253;SDS011;26987;59.928;30.306;2022-09-09T00:47:36;10.98;;;5.13;;
41253;SDS011;26987;59.928;30.306;2022-09-09T00:50:13;16.55;;;4.68;;
41253;SDS011;26987;59.928;30.306;2022-09-09T00:53:02;10.40;;;4.40;;
41253;SDS011;26987;59.928;30.306;2022-09-09T00:55:40;13.02;;;4.53;;
41253;SDS011;26987;59.928;30.306;2022-09-09T00:58:14;14.85;;;4.97;;
41253;SDS011;26987;59.928;30.306;2022-09-09T01:00:43;10.98;;;4.22;;
41253;SDS011;26987;59.928;30.306;2022-09-09T01:03:18;19.05;;;4.57;;
41253;SDS011;26987;59.928;30.306;2022-09-09T01:05:57;22.35;;;4.55;;
41253;SDS011;26987;59.928;30.306;2022-09-09T01:08:39;8.40;;;4.10;;
41253;SDS011;26987;59.928;30.306;2022-09-09T01:11:17;12.13;;;4.32;;
41253;SDS011;26987;59.928;30.306;2022-09-09T01:13:49;12.30;;;4.57;;
41253;SDS011;26987;59.928;30.306;2022-09-09T01:16:28;9.32;;;3.83;;
41253;SDS011;26987;59.928;30.306;2022-09-09T01:18:58;15.77;;;4.78;;
41253;SDS011;26987;59.928;30.306;2022-09-09T01:21:35;12.63;;;4.30;;
41253;SDS011;26987;59.928;30.306;2022-09-09T01:24:15;13.27;;;4.05;;
41253;SDS011;26987;59.928;30.306;2022-09-09T01:27:16;9.23;;;3.45;;
41253;SDS011;26987;59.928;30.306;2022-09-09T01:29:47;11.27;;;3.30;;
41253;SDS011;26987;59.928;30.306;2022-09-09T01:35:06;11.32;;;4.30;;
41253;SDS011;26987;59.928;30.306;2022-09-09T01:37:39;10.38;;;4.75;;
41253;SDS011;26987;59.928;30.306;2022-09-09T01:40:08;10.65;;;4.97;;
41253;SDS011;26987;59.928;30.306;2022-09-09T01:46:46;15.30;;;5.65;;
41253;SDS011;26987;59.928;30.306;2022-09-09T01:49:19;12.75;;;5.45;;
41253;SDS011;26987;59.928;30.306;2022-09-09T01:51:49;12.35;;;5.15;;
41253;SDS011;26987;59.928;30.306;2022-09-09T01:54:25;7.90;;;4.07;;
41253;SDS011;26987;59.928;30.306;2022-09-09T01:56:58;11.02;;;4.15;;
41253;SDS011;26987;59.928;30.306;2022-09-09T01:59:48;7.45;;;4.22;;
41253;SDS011;26987;59.928;30.306;2022-09-09T02:02:30;12.05;;;4.40;;
41253;SDS011;26987;59.928;30.306;2022-09-09T02:05:12;9.82;;;4.15;;
41253;SDS011;26987;59.928;30.306;2022-09-09T02:07:51;10.43;;;3.88;;
41253;SDS011;26987;59.928;30.306;2022-09-09T02:10:44;8.65;;;3.97;;
41253;SDS011;26987;59.928;30.306;2022-09-09T02:13:30;10.07;;;4.13;;
41253;SDS011;26987;59.928;30.306;2022-09-09T02:16:03;9.25;;;4.28;;
41253;SDS011;26987;59.928;30.306;2022-09-09T02:18:38;9.10;;;4.03;;
41253;SDS011;26987;59.928;30.306;2022-09-09T02:21:09;9.85;;;3.95;;
41253;SDS011;26987;59.928;30.306;2022-09-09T02:23:40;12.60;;;4.13;;
41253;SDS011;26987;59.928;30.306;2022-09-09T02:26:12;14.60;;;4.57;;
41253;SDS011;26987;59.928;30.306;2022-09-09T02:28:49;6.10;;;2.60;;
41253;SDS011;26987;59.928;30.306;2022-09-09T02:31:19;10.27;;;3.67;;
41253;SDS011;26987;59.928;30.306;2022-09-09T02:33:55;7.70;;;2.72;;
41253;SDS011;26987;59.928;30.306;2022-09-09T02:36:27;7.78;;;2.92;;
41253;SDS011;26987;59.928;30.306;2022-09-09T02:39:00;7.75;;;3.33;;
41253;SDS011;26987;59.928;30.306;2022-09-09T02:41:33;6.32;;;2.65;;
41253;SDS011;26987;59.928;30.306;2022-09-09T02:44:05;7.05;;;2.20;;
41253;SDS011;26987;59.928;30.306;2022-09-09T02:46:37;7.55;;;2.00;;
41253;SDS011;26987;59.928;30.306;2022-09-09T02:49:21;12.10;;;3.67;;
41253;SDS011;26987;59.928;30.306;2022-09-09T02:51:57;5.75;;;1.67;;
41253;SDS011;26987;59.928;30.306;2022-09-09T02:54:34;7.88;;;1.98;;
41253;SDS011;26987;59.928;30.306;2022-09-09T02:57:10;4.10;;;1.90;;
41253;SDS011;26987;59.928;30.306;2022-09-09T02:59:41;5.43;;;1.85;;
41253;SDS011;26987;59.928;30.306;2022-09-09T03:02:11;7.13;;;1.70;;
41253;SDS011;26987;59.928;30.306;2022-09-09T03:04:43;4.35;;;1.52;;
41253;SDS011;26987;59.928;30.306;2022-09-09T03:07:16;5.18;;;2.17;;
41253;SDS011;26987;59.928;30.306;2022-09-09T03:09:45;4.20;;;1.02;;
41253;SDS011;26987;59.928;30.306;2022-09-09T03:12:14;5.38;;;1.70;;
41253;SDS011;26987;59.928;30.306;2022-09-09T03:14:42;5.50;;;1.60;;
41253;SDS011;26987;59.928;30.306;2022-09-09T03:17:12;6.22;;;1.80;;
41253;SDS011;26987;59.928;30.306;2022-09-09T03:19:49;4.82;;;1.63;;
41253;SDS011;26987;59.928;30.306;2022-09-09T03:22:18;3.80;;;1.38;;
41253;SDS011;26987;59.928;30.306;2022-09-09T03:24:47;3.28;;;1.10;;
41253;SDS011;26987;59.928;30.306;2022-09-09T03:27:15;3.38;;;1.20;;
41253;SDS011;26987;59.928;30.306;2022-09-09T03:29:44;5.90;;;1.33;;
41253;SDS011;26987;59.928;30.306;2022-09-09T03:32:17;4.97;;;1.45;;
41253;SDS011;26987;59.928;30.306;2022-09-09T03:34:50;4.40;;;1.42;;
41253;SDS011;26987;59.928;30.306;2022-09-09T03:37:18;4.03;;;1.27;;
41253;SDS011;26987;59.928;30.306;2022-09-09T03:39:48;5.15;;;2.05;;
41253;SDS011;26987;59.928;30.306;2022-09-09T03:42:17;4.43;;;1.75;;
41253;SDS011;26987;59.928;30.306;2022-09-09T03:44:48;12.20;;;2.10;;
41253;SDS011;26987;59.928;30.306;2022-09-09T03:47:18;6.32;;;1.77;;
41253;SDS011;26987;59.928;30.306;2022-09-09T03:49:51;4.60;;;1.80;;
41253;SDS011;26987;59.928;30.306;2022-09-09T03:52:19;3.63;;;1.50;;
41253;SDS011;26987;59.928;30.306;2022-09-09T03:54:52;6.45;;;1.67;;
41253;SDS011;26987;59.928;30.306;2022-09-09T03:57:22;5.93;;;1.60;;
41253;SDS011;26987;59.928;30.306;2022-09-09T03:59:50;12.73;;;1.50;;
41253;SDS011;26987;59.928;30.306;2022-09-09T04:02:18;4.10;;;1.63;;
41253;SDS011;26987;59.928;30.306;2022-09-09T04:04:47;9.50;;;2.53;;
41253;SDS011;26987;59.928;30.306;2022-09-09T04:07:17;7.88;;;2.15;;
41253;SDS011;26987;59.928;30.306;2022-09-09T04:09:45;8.65;;;1.65;;
41253;SDS011;26987;59.928;30.306;2022-09-09T04:12:14;10.50;;;2.25;;
41253;SDS011;26987;59.928;30.306;2022-09-09T04:14:42;7.50;;;2.03;;
41253;SDS011;26987;59.928;30.306;2022-09-09T04:17:10;5.57;;;1.67;;
41253;SDS011;26987;59.928;30.306;2022-09-09T04:19:38;5.53;;;1.52;;
41253;SDS011;26987;59.928;30.306;2022-09-09T04:22:08;4.88;;;1.33;;
41253;SDS011;26987;59.928;30.306;2022-09-09T04:24:38;6.18;;;1.70;;
41253;SDS011;26987;59.928;30.306;2022-09-09T04:27:07;4.45;;;1.00;;
41253;SDS011;26987;59.928;30.306;2022-09-09T04:29:36;3.90;;;1.40;;
41253;SDS011;26987;59.928;30.306;2022-09-09T04:32:04;6.80;;;1.55;;
41253;SDS011;26987;59.928;30.306;2022-09-09T04:34:32;5.25;;;1.20;;
41253;SDS011;26987;59.928;30.306;2022-09-09T04:37:01;4.15;;;1.23;;
41253;SDS011;26987;59.928;30.306;2022-09-09T04:39:29;5.53;;;1.50;;
41253;SDS011;26987;59.928;30.306;2022-09-09T04:42:00;9.07;;;1.52;;
41253;SDS011;26987;59.928;30.306;2022-09-09T04:44:29;4.43;;;1.50;;
41253;SDS011;26987;59.928;30.306;2022-09-09T04:46:58;2.88;;;1.23;;
41253;SDS011;26987;59.928;30.306;2022-09-09T04:49:26;4.05;;;1.50;;
41253;SDS011;26987;59.928;30.306;2022-09-09T04:51:58;7.30;;;1.48;;
41253;SDS011;26987;59.928;30.306;2022-09-09T04:54:27;6.97;;;1.80;;
41253;SDS011;26987;59.928;30.306;2022-09-09T04:56:55;4.07;;;1.42;;
41253;SDS011;26987;59.928;30.306;2022-09-09T04:59:24;10.95;;;1.85;;
41253;SDS011;26987;59.928;30.306;2022-09-09T05:01:55;4.72;;;1.33;;
41253;SDS011;26987;59.928;30.306;2022-09-09T05:04:23;3.55;;;1.52;;
41253;SDS011;26987;59.928;30.306;2022-09-09T05:06:51;3.60;;;1.52;;
41253;SDS011;26987;59.928;30.306;2022-09-09T05:09:19;6.22;;;1.55;;
41253;SDS011;26987;59.928;30.306;2022-09-09T05:11:47;7.55;;;1.65;;
41253;SDS011;26987;59.928;30.306;2022-09-09T05:14:28;5.00;;;1.90;;
41253;SDS011;26987;59.928;30.306;2022-09-09T05:16:56;3.67;;;1.45;;
41253;SDS011;26987;59.928;30.306;2022-09-09T05:19:25;6.80;;;1.70;;
41253;SDS011;26987;59.928;30.306;2022-09-09T05:21:53;6.22;;;1.25;;
41253;SDS011;26987;59.928;30.306;2022-09-09T05:24:27;6.35;;;1.83;;
41253;SDS011;26987;59.928;30.306;2022-09-09T05:26:57;5.15;;;1.83;;
41253;SDS011;26987;59.928;30.306;2022-09-09T05:29:29;2.00;;;1.40;;
41253;SDS011;26987;59.928;30.306;2022-09-09T05:32:00;7.43;;;2.25;;
41253;SDS011;26987;59.928;30.306;2022-09-09T05:34:28;4.80;;;2.58;;
41253;SDS011;26987;59.928;30.306;2022-09-09T05:36:56;4.35;;;1.60;;
41253;SDS011;26987;59.928;30.306;2022-09-09T05:39:25;5.40;;;2.33;;
41253;SDS011;26987;59.928;30.306;2022-09-09T05:41:53;4.50;;;2.00;;
41253;SDS011;26987;59.928;30.306;2022-09-09T05:44:21;8.35;;;2.40;;
41253;SDS011;26987;59.928;30.306;2022-09-09T05:46:55;6.90;;;2.15;;
41253;SDS011;26987;59.928;30.306;2022-09-09T05:49:24;9.75;;;2.40;;
41253;SDS011;26987;59.928;30.306;2022-09-09T05:51:52;9.18;;;2.63;;
41253;SDS011;26987;59.928;30.306;2022-09-09T05:54:21;10.85;;;2.80;;
41253;SDS011;26987;59.928;30.306;2022-09-09T05:56:51;9.40;;;2.53;;
41253;SDS011;26987;59.928;30.306;2022-09-09T05:59:19;9.23;;;2.80;;
41253;SDS011;26987;59.928;30.306;2022-09-09T06:01:51;9.27;;;2.90;;
41253;SDS011;26987;59.928;30.306;2022-09-09T06:04:26;6.80;;;3.17;;
41253;SDS011;26987;59.928;30.306;2022-09-09T06:06:54;13.05;;;2.72;;
41253;SDS011;26987;59.928;30.306;2022-09-09T06:09:23;11.18;;;3.30;;
41253;SDS011;26987;59.928;30.306;2022-09-09T06:11:51;8.63;;;3.10;;
41253;SDS011;26987;59.928;30.306;2022-09-09T06:14:22;5.78;;;2.47;;
41253;SDS011;26987;59.928;30.306;2022-09-09T06:16:52;7.75;;;2.65;;
41253;SDS011;26987;59.928;30.306;2022-09-09T06:19:22;8.77;;;2.88;;
41253;SDS011;26987;59.928;30.306;2022-09-09T06:21:57;10.68;;;2.42;;
41253;SDS011;26987;59.928;30.306;2022-09-09T06:24:27;6.38;;;2.53;;
41253;SDS011;26987;59.928;30.306;2022-09-09T06:26:57;7.10;;;1.77;;
41253;SDS011;26987;59.928;30.306;2022-09-09T06:29:31;9.38;;;2.45;;
41253;SDS011;26987;59.928;30.306;2022-09-09T06:32:01;11.75;;;2.10;;
41253;SDS011;26987;59.928;30.306;2022-09-09T06:34:28;8.98;;;3.28;;
41253;SDS011;26987;59.928;30.306;2022-09-09T06:37:00;8.48;;;3.20;;
41253;SDS011;26987;59.928;30.306;2022-09-09T06:39:37;15.77;;;5.63;;
41253;SDS011;26987;59.928;30.306;2022-09-09T06:42:06;9.18;;;2.70;;
41253;SDS011;26987;59.928;30.306;2022-09-09T06:44:56;7.78;;;2.40;;
41253;SDS011;26987;59.928;30.306;2022-09-09T06:47:33;10.15;;;2.40;;
41253;SDS011;26987;59.928;30.306;2022-09-09T06:50:02;6.88;;;2.42;;
41253;SDS011;26987;59.928;30.306;2022-09-09T06:52:35;5.90;;;2.72;;
41253;SDS011;26987;59.928;30.306;2022-09-09T06:55:04;13.02;;;2.65;;
41253;SDS011;26987;59.928;30.306;2022-09-09T06:57:33;10.73;;;2.65;;
41253;SDS011;26987;59.928;30.306;2022-09-09T07:00:02;6.75;;;2.38;;
41253;SDS011;26987;59.928;30.306;2022-09-09T07:02:31;12.32;;;2.20;;
41253;SDS011;26987;59.928;30.306;2022-09-09T07:05:05;11.63;;;3.43;;
41253;SDS011;26987;59.928;30.306;2022-09-09T07:07:36;19.98;;;3.30;;
41253;SDS011;26987;59.928;30.306;2022-09-09T07:10:05;16.65;;;3.67;;
41253;SDS011;26987;59.928;30.306;2022-09-09T07:12:35;16.55;;;4.03;;
41253;SDS011;26987;59.928;30.306;2022-09-09T07:15:04;7.18;;;2.35;;
41253;SDS011;26987;59.928;30.306;2022-09-09T07:17:32;21.13;;;3.65;;
41253;SDS011;26987;59.928;30.306;2022-09-09T07:20:01;8.30;;;2.40;;
41253;SDS011;26987;59.928;30.306;2022-09-09T07:22:30;6.00;;;2.80;;
41253;SDS011;26987;59.928;30.306;2022-09-09T07:25:00;7.35;;;2.83;;
41253;SDS011;26987;59.928;30.306;2022-09-09T07:27:29;10.48;;;2.38;;
41253;SDS011;26987;59.928;30.306;2022-09-09T07:29:58;5.57;;;2.35;;
41253;SDS011;26987;59.928;30.306;2022-09-09T07:32:26;8.45;;;2.67;;
41253;SDS011;26987;59.928;30.306;2022-09-09T07:34:54;9.60;;;2.92;;
41253;SDS011;26987;59.928;30.306;2022-09-09T07:37:22;7.40;;;1.67;;
41253;SDS011;26987;59.928;30.306;2022-09-09T07:39:51;10.48;;;3.28;;
41253;SDS011;26987;59.928;30.306;2022-09-09T07:42:21;10.10;;;2.75;;
41253;SDS011;26987;59.928;30.306;2022-09-09T07:44:49;8.68;;;3.50;;
41253;SDS011;26987;59.928;30.306;2022-09-09T07:47:21;17.77;;;5.25;;
41253;SDS011;26987;59.928;30.306;2022-09-09T07:49:50;6.25;;;2.15;;
41253;SDS011;26987;59.928;30.306;2022-09-09T07:52:24;14.95;;;4.68;;
41253;SDS011;26987;59.928;30.306;2022-09-09T07:54:56;17.95;;;4.05;;
41253;SDS011;26987;59.928;30.306;2022-09-09T07:57:26;10.88;;;2.20;;
41253;SDS011;26987;59.928;30.306;2022-09-09T07:59:57;9.60;;;2.35;;
41253;SDS011;26987;59.928;30.306;2022-09-09T08:02:25;8.10;;;2.75;;
41253;SDS011;26987;59.928;30.306;2022-09-09T08:04:55;6.72;;;2.60;;
41253;SDS011;26987;59.928;30.306;2022-09-09T08:07:24;7.60;;;2.80;;
41253;SDS011;26987;59.928;30.306;2022-09-09T08:09:54;15.65;;;3.38;;
41253;SDS011;26987;59.928;30.306;2022-09-09T08:12:31;6.32;;;2.70;;
41253;SDS011;26987;59.928;30.306;2022-09-09T08:14:59;9.77;;;2.65;;
41253;SDS011;26987;59.928;30.306;2022-09-09T08:17:30;8.88;;;2.05;;
41253;SDS011;26987;59.928;30.306;2022-09-09T08:20:03;6.47;;;3.13;;
41253;SDS011;26987;59.928;30.306;2022-09-09T08:22:32;9.13;;;2.10;;
41253;SDS011;26987;59.928;30.306;2022-09-09T08:25:01;8.90;;;2.50;;
41253;SDS011;26987;59.928;30.306;2022-09-09T08:27:34;14.15;;;2.47;;
41253;SDS011;26987;59.928;30.306;2022-09-09T08:30:04;9.93;;;2.67;;
41253;SDS011;26987;59.928;30.306;2022-09-09T08:32:32;9.20;;;2.25;;
41253;SDS011;26987;59.928;30.306;2022-09-09T08:35:01;7.43;;;2.20;;
41253;SDS011;26987;59.928;30.306;2022-09-09T08:37:30;4.68;;;1.63;;
41253;SDS011;26987;59.928;30.306;2022-09-09T08:39:58;8.80;;;2.67;;
41253;SDS011;26987;59.928;30.306;2022-09-09T08:42:39;9.38;;;2.47;;
41253;SDS011;26987;59.928;30.306;2022-09-09T08:45:19;9.73;;;2.03;;
41253;SDS011;26987;59.928;30.306;2022-09-09T08:47:58;3.97;;;1.70;;
41253;SDS011;26987;59.928;30.306;2022-09-09T08:50:38;8.10;;;1.63;;
41253;SDS011;26987;59.928;30.306;2022-09-09T08:53:15;8.10;;;1.65;;
41253;SDS011;26987;59.928;30.306;2022-09-09T08:55:50;9.20;;;1.73;;
41253;SDS011;26987;59.928;30.306;2022-09-09T08:58:39;5.07;;;1.85;;
41253;SDS011;26987;59.928;30.306;2022-09-09T09:01:23;8.60;;;1.67;;
41253;SDS011;26987;59.928;30.306;2022-09-09T09:04:24;6.65;;;1.60;;
41253;SDS011;26987;59.928;30.306;2022-09-09T09:07:08;4.20;;;1.45;;
41253;SDS011;26987;59.928;30.306;2022-09-09T09:09:46;6.47;;;1.05;;
41253;SDS011;26987;59.928;30.306;2022-09-09T09:12:26;6.85;;;1.75;;
41253;SDS011;26987;59.928;30.306;2022-09-09T09:14:58;8.98;;;1.55;;
41253;SDS011;26987;59.928;30.306;2022-09-09T09:17:27;7.45;;;2.30;;
41253;SDS011;26987;59.928;30.306;2022-09-09T09:20:10;9.05;;;1.98;;
41253;SDS011;26987;59.928;30.306;2022-09-09T09:22:44;6.20;;;1.52;;
41253;SDS011;26987;59.928;30.306;2022-09-09T09:25:19;11.40;;;1.67;;
41253;SDS011;26987;59.928;30.306;2022-09-09T09:27:51;8.48;;;3.03;;
41253;SDS011;26987;59.928;30.306;2022-09-09T09:30:31;7.28;;;1.30;;
41253;SDS011;26987;59.928;30.306;2022-09-09T09:33:08;6.25;;;1.45;;
41253;SDS011;26987;59.928;30.306;2022-09-09T09:35:43;5.55;;;1.40;;
41253;SDS011;26987;59.928;30.306;2022-09-09T09:38:16;11.57;;;1.13;;
41253;SDS011;26987;59.928;30.306;2022-09-09T09:40:49;7.03;;;1.63;;
41253;SDS011;26987;59.928;30.306;2022-09-09T09:43:21;2.92;;;1.00;;
41253;SDS011;26987;59.928;30.306;2022-09-09T09:45:55;7.70;;;1.35;;
41253;SDS011;26987;59.928;30.306;2022-09-09T09:48:24;12.88;;;2.20;;
41253;SDS011;26987;59.928;30.306;2022-09-09T09:50:54;10.68;;;2.10;;
41253;SDS011;26987;59.928;30.306;2022-09-09T09:53:26;10.63;;;2.15;;
41253;SDS011;26987;59.928;30.306;2022-09-09T09:55:57;7.07;;;1.10;;
41253;SDS011;26987;59.928;30.306;2022-09-09T09:58:30;5.25;;;1.13;;
41253;SDS011;26987;59.928;30.306;2022-09-09T10:01:02;14.93;;;1.60;;
41253;SDS011;26987;59.928;30.306;2022-09-09T10:03:31;12.55;;;2.08;;
41253;SDS011;26987;59.928;30.306;2022-09-09T10:06:06;6.70;;;1.70;;
41253;SDS011;26987;59.928;30.306;2022-09-09T10:08:43;10.25;;;2.13;;
41253;SDS011;26987;59.928;30.306;2022-09-09T10:11:23;10.13;;;2.72;;
41253;SDS011;26987;59.928;30.306;2022-09-09T10:14:03;11.27;;;1.98;;
41253;SDS011;26987;59.928;30.306;2022-09-09T10:16:45;5.05;;;0.90;;
41253;SDS011;26987;59.928;30.306;2022-09-09T10:19:27;7.28;;;0.77;;
41253;SDS011;26987;59.928;30.306;2022-09-09T10:22:14;1.92;;;0.70;;
41253;SDS011;26987;59.928;30.306;2022-09-09T10:25:02;1.63;;;0.60;;
41253;SDS011;26987;59.928;30.306;2022-09-09T10:27:44;2.95;;;1.48;;
41253;SDS011;26987;59.928;30.306;2022-09-09T10:30:23;7.40;;;1.67;;
41253;SDS011;26987;59.928;30.306;2022-09-09T10:33:01;4.28;;;1.05;;
41253;SDS011;26987;59.928;30.306;2022-09-09T10:35:37;4.40;;;1.15;;
41253;SDS011;26987;59.928;30.306;2022-09-09T10:38:13;2.20;;;1.00;;
41253;SDS011;26987;59.928;30.306;2022-09-09T10:41:00;3.75;;;0.90;;
41253;SDS011;26987;59.928;30.306;2022-09-09T10:44:01;2.95;;;0.85;;
41253;SDS011;26987;59.928;30.306;2022-09-09T10:46:43;2.80;;;0.82;;
41253;SDS011;26987;59.928;30.306;2022-09-09T10:49:23;1.45;;;0.77;;
41253;SDS011;26987;59.928;30.306;2022-09-09T10:52:09;3.80;;;0.95;;
41253;SDS011;26987;59.928;30.306;2022-09-09T10:54:47;2.15;;;1.30;;
41253;SDS011;26987;59.928;30.306;2022-09-09T10:57:27;3.50;;;1.95;;
41253;SDS011;26987;59.928;30.306;2022-09-09T11:00:02;3.60;;;1.52;;
41253;SDS011;26987;59.928;30.306;2022-09-09T11:02:34;5.15;;;1.20;;
41253;SDS011;26987;59.928;30.306;2022-09-09T11:05:05;2.90;;;1.20;;
41253;SDS011;26987;59.928;30.306;2022-09-09T11:07:42;4.45;;;1.10;;
41253;SDS011;26987;59.928;30.306;2022-09-09T11:10:17;5.20;;;1.25;;
41253;SDS011;26987;59.928;30.306;2022-09-09T11:12:52;2.55;;;1.30;;
41253;SDS011;26987;59.928;30.306;2022-09-09T11:15:26;2.78;;;1.25;;
41253;SDS011;26987;59.928;30.306;2022-09-09T11:18:03;4.68;;;1.70;;
41253;SDS011;26987;59.928;30.306;2022-09-09T11:20:35;3.03;;;1.10;;
41253;SDS011;26987;59.928;30.306;2022-09-09T11:23:04;7.93;;;1.00;;
41253;SDS011;26987;59.928;30.306;2022-09-09T11:25:39;3.35;;;0.82;;
41253;SDS011;26987;59.928;30.306;2022-09-09T11:31:15;3.20;;;1.25;;
41253;SDS011;26987;59.928;30.306;2022-09-09T11:33:58;4.55;;;1.52;;
41253;SDS011;26987;59.928;30.306;2022-09-09T11:39:48;2.35;;;0.98;;
41253;SDS011;26987;59.928;30.306;2022-09-09T11:42:35;4.65;;;1.63;;
41253;SDS011;26987;59.928;30.306;2022-09-09T11:47:53;3.30;;;1.30;;
41253;SDS011;26987;59.928;30.306;2022-09-09T11:50:32;4.43;;;1.15;;
41253;SDS011;26987;59.928;30.306;2022-09-09T11:53:05;3.60;;;1.15;;
41253;SDS011;26987;59.928;30.306;2022-09-09T11:55:46;8.55;;;2.10;;
41253;SDS011;26987;59.928;30.306;2022-09-09T11:58:15;2.63;;;0.90;;
41253;SDS011;26987;59.928;30.306;2022-09-09T12:00:46;4.18;;;1.75;;
41253;SDS011;26987;59.928;30.306;2022-09-09T12:06:10;6.85;;;1.20;;
41253;SDS011;26987;59.928;30.306;2022-09-09T12:08:43;5.47;;;1.27;;
41253;SDS011;26987;59.928;30.306;2022-09-09T12:11:23;3.60;;;1.30;;
41253;SDS011;26987;59.928;30.306;2022-09-09T12:13:53;2.00;;;1.00;;
41253;SDS011;26987;59.928;30.306;2022-09-09T12:16:28;3.95;;;1.13;;
41253;SDS011;26987;59.928;30.306;2022-09-09T12:19:06;1.80;;;0.70;;
41253;SDS011;26987;59.928;30.306;2022-09-09T12:21:44;5.90;;;0.57;;
41253;SDS011;26987;59.928;30.306;2022-09-09T12:24:22;2.08;;;0.65;;
41253;SDS011;26987;59.928;30.306;2022-09-09T12:27:00;17.17;;;2.10;;
41253;SDS011;26987;59.928;30.306;2022-09-09T12:29:36;2.53;;;0.70;;
41253;SDS011;26987;59.928;30.306;2022-09-09T12:32:11;2.17;;;0.70;;
41253;SDS011;26987;59.928;30.306;2022-09-09T12:34:43;2.30;;;0.90;;
41253;SDS011;26987;59.928;30.306;2022-09-09T12:37:17;1.77;;;1.10;;
41253;SDS011;26987;59.928;30.306;2022-09-09T12:39:53;4.07;;;1.60;;
41253;SDS011;26987;59.928;30.306;2022-09-09T12:42:23;2.72;;;1.15;;
41253;SDS011;26987;59.928;30.306;2022-09-09T12:44:53;3.97;;;1.00;;
41253;SDS011;26987;59.928;30.306;2022-09-09T12:47:24;2.00;;;0.82;;
41253;SDS011;26987;59.928;30.306;2022-09-09T12:49:56;4.15;;;2.38;;
41253;SDS011;26987;59.928;30.306;2022-09-09T12:52:25;2.75;;;1.08;;
41253;SDS011;26987;59.928;30.306;2022-09-09T12:54:59;3.58;;;1.00;;
41253;SDS011;26987;59.928;30.306;2022-09-09T12:57:31;1.83;;;1.00;;
41253;SDS011;26987;59.928;30.306;2022-09-09T13:00:04;4.97;;;1.08;;
41253;SDS011;26987;59.928;30.306;2022-09-09T13:02:36;3.13;;;1.08;;
41253;SDS011;26987;59.928;30.306;2022-09-09T13:05:15;2.28;;;0.82;;
41253;SDS011;26987;59.928;30.306;2022-09-09T13:07:45;1.08;;;0.70;;
41253;SDS011;26987;59.928;30.306;2022-09-09T13:10:15;3.33;;;1.35;;
41253;SDS011;26987;59.928;30.306;2022-09-09T13:12:50;7.50;;;1.35;;
41253;SDS011;26987;59.928;30.306;2022-09-09T13:15:19;4.30;;;1.20;;
41253;SDS011;26987;59.928;30.306;2022-09-09T13:17:51;8.27;;;1.25;;
41253;SDS011;26987;59.928;30.306;2022-09-09T13:20:21;5.55;;;1.70;;
41253;SDS011;26987;59.928;30.306;2022-09-09T13:22:51;4.10;;;1.10;;
41253;SDS011;26987;59.928;30.306;2022-09-09T13:25:23;3.83;;;1.27;;
41253;SDS011;26987;59.928;30.306;2022-09-09T13:27:55;2.78;;;1.15;;
41253;SDS011;26987;59.928;30.306;2022-09-09T13:30:26;3.47;;;1.33;;
41253;SDS011;26987;59.928;30.306;2022-09-09T13:32:59;2.50;;;1.10;;
41253;SDS011;26987;59.928;30.306;2022-09-09T13:35:28;7.57;;;1.27;;
41253;SDS011;26987;59.928;30.306;2022-09-09T13:37:56;2.33;;;0.98;;
41253;SDS011;26987;59.928;30.306;2022-09-09T13:40:27;1.98;;;0.98;;
41253;SDS011;26987;59.928;30.306;2022-09-09T13:42:56;3.97;;;1.05;;
41253;SDS011;26987;59.928;30.306;2022-09-09T13:45:25;2.88;;;1.15;;
41253;SDS011;26987;59.928;30.306;2022-09-09T13:47:54;2.95;;;1.27;;
41253;SDS011;26987;59.928;30.306;2022-09-09T13:50:24;5.18;;;1.05;;
41253;SDS011;26987;59.928;30.306;2022-09-09T13:52:53;4.38;;;1.17;;
41253;SDS011;26987;59.928;30.306;2022-09-09T13:55:24;5.55;;;1.38;;
41253;SDS011;26987;59.928;30.306;2022-09-09T13:57:55;7.38;;;1.55;;
41253;SDS011;26987;59.928;30.306;2022-09-09T14:00:25;4.93;;;1.63;;
41253;SDS011;26987;59.928;30.306;2022-09-09T14:02:52;3.85;;;1.63;;
41253;SDS011;26987;59.928;30.306;2022-09-09T14:05:21;3.85;;;1.13;;
41253;SDS011;26987;59.928;30.306;2022-09-09T14:07:49;2.83;;;1.00;;
41253;SDS011;26987;59.928;30.306;2022-09-09T14:10:17;3.28;;;1.10;;
41253;SDS011;26987;59.928;30.306;2022-09-09T14:12:48;1.88;;;1.10;;
41253;SDS011;26987;59.928;30.306;2022-09-09T14:15:16;2.72;;;1.90;;
41253;SDS011;26987;59.928;30.306;2022-09-09T14:17:45;3.35;;;1.77;;
41253;SDS011;26987;59.928;30.306;2022-09-09T14:20:14;4.47;;;1.75;;
41253;SDS011;26987;59.928;30.306;2022-09-09T14:22:43;8.57;;;2.10;;
41253;SDS011;26987;59.928;30.306;2022-09-09T14:25:11;5.63;;;1.40;;
41253;SDS011;26987;59.928;30.306;2022-09-09T14:27:40;5.97;;;1.40;;
41253;SDS011;26987;59.928;30.306;2022-09-09T14:30:11;11.82;;;2.90;;
41253;SDS011;26987;59.928;30.306;2022-09-09T14:32:39;6.47;;;1.92;;
41253;SDS011;26987;59.928;30.306;2022-09-09T14:35:07;7.20;;;1.10;;
41253;SDS011;26987;59.928;30.306;2022-09-09T14:37:35;3.47;;;1.02;;
41253;SDS011;26987;59.928;30.306;2022-09-09T14:40:05;7.15;;;1.52;;
41253;SDS011;26987;59.928;30.306;2022-09-09T14:42:34;5.80;;;1.83;;
41253;SDS011;26987;59.928;30.306;2022-09-09T14:45:02;5.03;;;1.50;;
41253;SDS011;26987;59.928;30.306;2022-09-09T14:47:32;2.05;;;1.17;;
41253;SDS011;26987;59.928;30.306;2022-09-09T14:50:00;3.83;;;1.38;;
41253;SDS011;26987;59.928;30.306;2022-09-09T14:52:30;7.20;;;1.55;;
41253;SDS011;26987;59.928;30.306;2022-09-09T14:54:58;3.08;;;1.20;;
41253;SDS011;26987;59.928;30.306;2022-09-09T14:57:26;7.18;;;1.88;;
41253;SDS011;26987;59.928;30.306;2022-09-09T14:59:54;4.32;;;1.33;;
41253;SDS011;26987;59.928;30.306;2022-09-09T15:02:22;3.97;;;1.50;;
41253;SDS011;26987;59.928;30.306;2022-09-09T15:04:52;2.47;;;0.93;;
41253;SDS011;26987;59.928;30.306;2022-09-09T15:07:23;5.07;;;1.30;;
41253;SDS011;26987;59.928;30.306;2022-09-09T15:09:51;10.40;;;1.35;;
41253;SDS011;26987;59.928;30.306;2022-09-09T15:12:19;2.97;;;1.20;;
41253;SDS011;26987;59.928;30.306;2022-09-09T15:14:48;4.88;;;1.38;;
41253;SDS011;26987;59.928;30.306;2022-09-09T15:17:16;4.50;;;1.25;;
41253;SDS011;26987;59.928;30.306;2022-09-09T15:19:44;4.85;;;1.33;;
41253;SDS011;26987;59.928;30.306;2022-09-09T15:22:13;4.85;;;1.65;;
41253;SDS011;26987;59.928;30.306;2022-09-09T15:24:41;7.65;;;1.50;;